Williams, AZ (86046)

11:54 AM MST on July 29, 2016 (GMT -0700)
Williams, AZ | | Change Station

Elev 7100 ft 35.23 °N, 112.17 °W | Updated 35 seconds ago

Clear
Clear
86.4 °F
Feels Like 83 °F
N
2.0
Wind Variable Wind from SE
Gusts 6.0 mph

Today
High -- | Low -- °F
--% Chance of Precip.
Yesterday
High -- | Low -- °F
Precip. -- in
Pressure 30.35 in
Visibility 9.0 miles
Clouds Clear
Heat Index 83 °F
Dew Point 43 °F
Humidity 22%
Rainfall 0.00 in
Snow Depth Not available.
5:35 AM 7:34 PM
Waning Crescent, 20% visible
METAR KCMR 291835Z AUTO 34008KT 330V030 9SM CLR 30/06 A3035 RMK AO2
Pressure 30.35 in
Visibility 9.0 miles
Clouds Clear
Heat Index 83 °F
Dew Point 43 °F
Humidity 22%
Rainfall 0.00 in
Snow Depth Not available.
5:35 AM 7:34 PM
Waning Crescent, 20% visible
METAR KCMR 291835Z AUTO 34008KT 330V030 9SM CLR 30/06 A3035 RMK AO2

10-Day Weather Forecast

Almanac

Astronomy

Jul. 29, 2016 Rise Set
Actual Time
Civil Twilight
Nautical Twilight
Astronomical Twilight
Moon
Length of Visible Light
Length of Day
Tomorrow will be .
, % of the Moon is Illuminated

Today's Extremes

State Highs State Lows

Community

WunderPhotos

Upload Photos

1,928,393 photos uploaded!

WunderBlog® & News

Nearby

Air Quality

  Air Quality AQ Index Pollutant
Not available.

Snow Depth

Station Depth Elevation

Earthquake Activity

City Distance Mag. Time & Date
Minimum magnitude displayed is 2.5.

Coastal Water Temperatures

Place Temperature

Stations

Nearby Weather Stations

Station Location Temp. Windchill Dew Point Humidity Wind Precip. Elev Updated Type
                   

Watches & Warnings

There are currently no watches in effect.